sensor_id;sensor_type;location;lat;lon;timestamp;P1;durP1;ratioP1;P2;durP2;ratioP2
26981;SDS011;14533;50.848;4.380;2022-10-28T00:01:10;10.48;;;4.75;;
26981;SDS011;14533;50.848;4.380;2022-10-28T00:03:42;14.80;;;4.60;;
26981;SDS011;14533;50.848;4.380;2022-10-28T00:06:17;8.55;;;4.13;;
26981;SDS011;14533;50.848;4.380;2022-10-28T00:08:57;15.10;;;4.65;;
26981;SDS011;14533;50.848;4.380;2022-10-28T00:11:24;17.33;;;4.40;;
26981;SDS011;14533;50.848;4.380;2022-10-28T00:14:01;14.85;;;5.13;;
26981;SDS011;14533;50.848;4.380;2022-10-28T00:16:31;15.70;;;5.75;;
26981;SDS011;14533;50.848;4.380;2022-10-28T00:18:59;8.88;;;4.07;;
26981;SDS011;14533;50.848;4.380;2022-10-28T00:21:31;20.08;;;5.57;;
26981;SDS011;14533;50.848;4.380;2022-10-28T00:23:58;21.15;;;5.30;;
26981;SDS011;14533;50.848;4.380;2022-10-28T00:26:25;9.88;;;4.70;;
26981;SDS011;14533;50.848;4.380;2022-10-28T00:28:53;12.20;;;4.95;;
26981;SDS011;14533;50.848;4.380;2022-10-28T00:31:22;14.70;;;4.45;;
26981;SDS011;14533;50.848;4.380;2022-10-28T00:33:49;13.30;;;4.85;;
26981;SDS011;14533;50.848;4.380;2022-10-28T00:36:19;15.43;;;4.90;;
26981;SDS011;14533;50.848;4.380;2022-10-28T00:39:20;11.27;;;4.43;;
26981;SDS011;14533;50.848;4.380;2022-10-28T00:41:49;13.35;;;4.63;;
26981;SDS011;14533;50.848;4.380;2022-10-28T00:50:14;16.67;;;4.72;;
26981;SDS011;14533;50.848;4.380;2022-10-28T00:55:13;10.85;;;4.68;;
26981;SDS011;14533;50.848;4.380;2022-10-28T00:57:41;17.38;;;5.32;;
26981;SDS011;14533;50.848;4.380;2022-10-28T01:00:11;10.43;;;3.92;;
26981;SDS011;14533;50.848;4.380;2022-10-28T01:02:47;25.58;;;5.22;;
26981;SDS011;14533;50.848;4.380;2022-10-28T01:05:14;13.23;;;4.80;;
26981;SDS011;14533;50.848;4.380;2022-10-28T01:07:48;20.42;;;5.30;;
26981;SDS011;14533;50.848;4.380;2022-10-28T01:10:15;11.30;;;4.80;;
26981;SDS011;14533;50.848;4.380;2022-10-28T01:15:35;16.27;;;4.85;;
26981;SDS011;14533;50.848;4.380;2022-10-28T01:18:27;12.75;;;4.60;;
26981;SDS011;14533;50.848;4.380;2022-10-28T01:23:57;18.88;;;4.32;;
26981;SDS011;14533;50.848;4.380;2022-10-28T01:32:09;15.65;;;4.82;;
26981;SDS011;14533;50.848;4.380;2022-10-28T01:35:03;14.35;;;4.50;;
26981;SDS011;14533;50.848;4.380;2022-10-28T01:37:43;18.77;;;4.43;;
26981;SDS011;14533;50.848;4.380;2022-10-28T01:43:07;14.52;;;3.92;;
26981;SDS011;14533;50.848;4.380;2022-10-28T01:48:21;16.63;;;4.43;;
26981;SDS011;14533;50.848;4.380;2022-10-28T01:51:13;13.80;;;5.15;;
26981;SDS011;14533;50.848;4.380;2022-10-28T01:53:55;10.20;;;4.50;;
26981;SDS011;14533;50.848;4.380;2022-10-28T01:56:28;18.10;;;4.82;;
26981;SDS011;14533;50.848;4.380;2022-10-28T01:58:58;30.58;;;5.32;;
26981;SDS011;14533;50.848;4.380;2022-10-28T02:01:28;11.35;;;5.10;;
26981;SDS011;14533;50.848;4.380;2022-10-28T02:03:55;13.77;;;4.05;;
26981;SDS011;14533;50.848;4.380;2022-10-28T02:06:25;15.93;;;5.20;;
26981;SDS011;14533;50.848;4.380;2022-10-28T02:20:22;14.90;;;5.05;;
26981;SDS011;14533;50.848;4.380;2022-10-28T02:22:54;14.18;;;4.68;;
26981;SDS011;14533;50.848;4.380;2022-10-28T02:25:44;12.88;;;4.65;;
26981;SDS011;14533;50.848;4.380;2022-10-28T02:31:31;12.32;;;4.35;;
26981;SDS011;14533;50.848;4.380;2022-10-28T02:34:08;17.13;;;5.93;;
26981;SDS011;14533;50.848;4.380;2022-10-28T02:36:41;15.07;;;4.88;;
26981;SDS011;14533;50.848;4.380;2022-10-28T02:39:11;12.88;;;5.03;;
26981;SDS011;14533;50.848;4.380;2022-10-28T02:41:43;13.38;;;4.60;;
26981;SDS011;14533;50.848;4.380;2022-10-28T02:44:18;12.55;;;4.53;;
26981;SDS011;14533;50.848;4.380;2022-10-28T02:46:53;18.30;;;4.75;;
26981;SDS011;14533;50.848;4.380;2022-10-28T02:49:22;10.13;;;4.53;;
26981;SDS011;14533;50.848;4.380;2022-10-28T02:51:56;19.52;;;5.05;;
26981;SDS011;14533;50.848;4.380;2022-10-28T02:54:31;23.50;;;5.20;;
26981;SDS011;14533;50.848;4.380;2022-10-28T02:57:11;15.57;;;4.40;;
26981;SDS011;14533;50.848;4.380;2022-10-28T02:59:41;20.80;;;5.00;;
26981;SDS011;14533;50.848;4.380;2022-10-28T03:02:07;18.65;;;4.50;;
26981;SDS011;14533;50.848;4.380;2022-10-28T03:04:33;20.30;;;4.97;;
26981;SDS011;14533;50.848;4.380;2022-10-28T03:07:01;17.70;;;4.38;;
26981;SDS011;14533;50.848;4.380;2022-10-28T03:09:33;24.73;;;4.90;;
26981;SDS011;14533;50.848;4.380;2022-10-28T03:11:59;15.02;;;5.00;;
26981;SDS011;14533;50.848;4.380;2022-10-28T03:14:25;24.35;;;4.75;;
26981;SDS011;14533;50.848;4.380;2022-10-28T03:16:50;12.27;;;4.72;;
26981;SDS011;14533;50.848;4.380;2022-10-28T03:19:16;15.63;;;4.93;;
26981;SDS011;14533;50.848;4.380;2022-10-28T03:21:41;18.58;;;4.88;;
26981;SDS011;14533;50.848;4.380;2022-10-28T03:24:07;18.88;;;5.40;;
26981;SDS011;14533;50.848;4.380;2022-10-28T03:26:36;15.90;;;5.45;;
26981;SDS011;14533;50.848;4.380;2022-10-28T03:29:01;16.05;;;4.63;;
26981;SDS011;14533;50.848;4.380;2022-10-28T03:31:28;13.60;;;4.45;;
26981;SDS011;14533;50.848;4.380;2022-10-28T03:33:54;19.38;;;5.57;;
26981;SDS011;14533;50.848;4.380;2022-10-28T03:36:19;15.75;;;4.65;;
26981;SDS011;14533;50.848;4.380;2022-10-28T03:38:47;21.65;;;5.45;;
26981;SDS011;14533;50.848;4.380;2022-10-28T03:41:13;12.05;;;4.82;;
26981;SDS011;14533;50.848;4.380;2022-10-28T03:43:40;17.27;;;5.20;;
26981;SDS011;14533;50.848;4.380;2022-10-28T03:46:07;16.67;;;4.38;;
26981;SDS011;14533;50.848;4.380;2022-10-28T03:48:33;18.48;;;4.72;;
26981;SDS011;14533;50.848;4.380;2022-10-28T03:51:14;12.65;;;5.22;;
26981;SDS011;14533;50.848;4.380;2022-10-28T03:53:50;19.95;;;5.38;;
26981;SDS011;14533;50.848;4.380;2022-10-28T03:56:16;13.07;;;4.38;;
26981;SDS011;14533;50.848;4.380;2022-10-28T03:58:45;20.65;;;5.40;;
26981;SDS011;14533;50.848;4.380;2022-10-28T04:01:13;11.90;;;4.63;;
26981;SDS011;14533;50.848;4.380;2022-10-28T04:03:38;16.90;;;4.80;;
26981;SDS011;14533;50.848;4.380;2022-10-28T04:06:04;14.93;;;4.47;;
26981;SDS011;14533;50.848;4.380;2022-10-28T04:08:31;18.00;;;4.82;;
26981;SDS011;14533;50.848;4.380;2022-10-28T04:10:57;19.15;;;4.70;;
26981;SDS011;14533;50.848;4.380;2022-10-28T04:13:22;15.38;;;5.28;;
26981;SDS011;14533;50.848;4.380;2022-10-28T04:15:48;16.00;;;5.05;;
26981;SDS011;14533;50.848;4.380;2022-10-28T04:18:14;18.77;;;4.95;;
26981;SDS011;14533;50.848;4.380;2022-10-28T04:20:41;13.18;;;5.45;;
26981;SDS011;14533;50.848;4.380;2022-10-28T04:23:09;11.85;;;4.95;;
26981;SDS011;14533;50.848;4.380;2022-10-28T04:25:40;17.92;;;5.28;;
26981;SDS011;14533;50.848;4.380;2022-10-28T04:28:07;11.90;;;5.32;;
26981;SDS011;14533;50.848;4.380;2022-10-28T04:30:36;13.55;;;4.90;;
26981;SDS011;14533;50.848;4.380;2022-10-28T04:33:02;17.42;;;4.57;;
26981;SDS011;14533;50.848;4.380;2022-10-28T04:35:28;19.60;;;5.22;;
26981;SDS011;14533;50.848;4.380;2022-10-28T04:37:55;19.33;;;5.07;;
26981;SDS011;14533;50.848;4.380;2022-10-28T04:40:22;16.00;;;5.00;;
26981;SDS011;14533;50.848;4.380;2022-10-28T04:42:51;20.52;;;5.50;;
26981;SDS011;14533;50.848;4.380;2022-10-28T04:45:17;15.15;;;5.13;;
26981;SDS011;14533;50.848;4.380;2022-10-28T04:47:43;20.00;;;4.93;;
26981;SDS011;14533;50.848;4.380;2022-10-28T04:50:10;16.73;;;4.80;;
26981;SDS011;14533;50.848;4.380;2022-10-28T04:52:37;15.20;;;5.43;;
26981;SDS011;14533;50.848;4.380;2022-10-28T04:55:03;17.35;;;4.72;;
26981;SDS011;14533;50.848;4.380;2022-10-28T04:57:29;19.05;;;4.50;;
26981;SDS011;14533;50.848;4.380;2022-10-28T04:59:56;14.43;;;5.05;;
26981;SDS011;14533;50.848;4.380;2022-10-28T05:02:24;17.23;;;5.30;;
26981;SDS011;14533;50.848;4.380;2022-10-28T05:04:50;16.83;;;4.95;;
26981;SDS011;14533;50.848;4.380;2022-10-28T05:07:16;14.15;;;5.10;;
26981;SDS011;14533;50.848;4.380;2022-10-28T05:09:42;11.07;;;4.75;;
26981;SDS011;14533;50.848;4.380;2022-10-28T05:12:10;17.75;;;4.75;;
26981;SDS011;14533;50.848;4.380;2022-10-28T05:14:36;13.32;;;4.97;;
26981;SDS011;14533;50.848;4.380;2022-10-28T05:17:03;19.70;;;5.40;;
26981;SDS011;14533;50.848;4.380;2022-10-28T05:19:33;17.02;;;5.32;;
26981;SDS011;14533;50.848;4.380;2022-10-28T05:21:58;17.00;;;5.22;;
26981;SDS011;14533;50.848;4.380;2022-10-28T05:24:24;14.05;;;5.45;;
26981;SDS011;14533;50.848;4.380;2022-10-28T05:26:52;15.40;;;5.43;;
26981;SDS011;14533;50.848;4.380;2022-10-28T05:29:18;13.48;;;4.63;;
26981;SDS011;14533;50.848;4.380;2022-10-28T05:31:48;16.30;;;5.05;;
26981;SDS011;14533;50.848;4.380;2022-10-28T05:34:16;13.93;;;4.63;;
26981;SDS011;14533;50.848;4.380;2022-10-28T05:36:43;19.45;;;4.80;;
26981;SDS011;14533;50.848;4.380;2022-10-28T05:39:10;10.43;;;5.05;;
26981;SDS011;14533;50.848;4.380;2022-10-28T05:41:41;15.02;;;4.72;;
26981;SDS011;14533;50.848;4.380;2022-10-28T05:44:07;18.60;;;4.85;;
26981;SDS011;14533;50.848;4.380;2022-10-28T05:46:33;19.25;;;6.78;;
26981;SDS011;14533;50.848;4.380;2022-10-28T05:49:00;19.58;;;5.22;;
26981;SDS011;14533;50.848;4.380;2022-10-28T05:51:33;15.25;;;5.15;;
26981;SDS011;14533;50.848;4.380;2022-10-28T05:54:03;21.60;;;5.38;;
26981;SDS011;14533;50.848;4.380;2022-10-28T05:56:31;15.45;;;5.03;;
26981;SDS011;14533;50.848;4.380;2022-10-28T05:58:56;19.73;;;5.75;;
26981;SDS011;14533;50.848;4.380;2022-10-28T06:01:22;20.35;;;5.03;;
26981;SDS011;14533;50.848;4.380;2022-10-28T06:03:47;17.88;;;5.40;;
26981;SDS011;14533;50.848;4.380;2022-10-28T06:06:13;19.92;;;5.72;;
26981;SDS011;14533;50.848;4.380;2022-10-28T06:08:38;16.42;;;5.43;;
26981;SDS011;14533;50.848;4.380;2022-10-28T06:11:04;11.68;;;5.50;;
26981;SDS011;14533;50.848;4.380;2022-10-28T06:13:30;18.45;;;5.32;;
26981;SDS011;14533;50.848;4.380;2022-10-28T06:15:55;22.15;;;5.35;;
26981;SDS011;14533;50.848;4.380;2022-10-28T06:18:21;18.15;;;5.18;;
26981;SDS011;14533;50.848;4.380;2022-10-28T06:20:51;23.92;;;6.47;;
26981;SDS011;14533;50.848;4.380;2022-10-28T06:23:22;27.40;;;5.90;;
26981;SDS011;14533;50.848;4.380;2022-10-28T06:25:48;19.67;;;5.47;;
26981;SDS011;14533;50.848;4.380;2022-10-28T06:28:14;24.05;;;5.38;;
26981;SDS011;14533;50.848;4.380;2022-10-28T06:30:40;14.77;;;5.10;;
26981;SDS011;14533;50.848;4.380;2022-10-28T06:33:05;16.73;;;5.70;;
26981;SDS011;14533;50.848;4.380;2022-10-28T06:35:31;19.17;;;5.15;;
26981;SDS011;14533;50.848;4.380;2022-10-28T06:37:57;23.35;;;6.10;;
26981;SDS011;14533;50.848;4.380;2022-10-28T06:40:23;19.25;;;5.95;;
26981;SDS011;14533;50.848;4.380;2022-10-28T06:42:59;22.13;;;5.85;;
26981;SDS011;14533;50.848;4.380;2022-10-28T06:45:26;13.73;;;5.28;;
26981;SDS011;14533;50.848;4.380;2022-10-28T06:47:58;19.05;;;5.72;;
26981;SDS011;14533;50.848;4.380;2022-10-28T06:50:28;18.77;;;5.40;;
26981;SDS011;14533;50.848;4.380;2022-10-28T06:52:54;16.23;;;5.43;;
26981;SDS011;14533;50.848;4.380;2022-10-28T06:55:21;23.17;;;6.80;;
26981;SDS011;14533;50.848;4.380;2022-10-28T06:57:47;23.42;;;6.25;;
26981;SDS011;14533;50.848;4.380;2022-10-28T07:00:13;16.25;;;5.70;;
26981;SDS011;14533;50.848;4.380;2022-10-28T07:02:49;22.65;;;7.45;;
26981;SDS011;14533;50.848;4.380;2022-10-28T07:05:17;25.00;;;5.67;;
26981;SDS011;14533;50.848;4.380;2022-10-28T07:07:43;16.77;;;5.88;;
26981;SDS011;14533;50.848;4.380;2022-10-28T07:10:09;20.15;;;6.10;;
26981;SDS011;14533;50.848;4.380;2022-10-28T07:12:34;31.75;;;6.50;;
26981;SDS011;14533;50.848;4.380;2022-10-28T07:15:01;19.65;;;5.50;;
26981;SDS011;14533;50.848;4.380;2022-10-28T07:17:27;19.23;;;5.78;;
26981;SDS011;14533;50.848;4.380;2022-10-28T07:19:52;19.92;;;4.97;;
26981;SDS011;14533;50.848;4.380;2022-10-28T07:22:19;21.30;;;5.82;;
26981;SDS011;14533;50.848;4.380;2022-10-28T07:24:45;23.80;;;5.93;;
26981;SDS011;14533;50.848;4.380;2022-10-28T07:27:11;16.08;;;5.72;;
26981;SDS011;14533;50.848;4.380;2022-10-28T07:29:45;25.38;;;6.22;;
26981;SDS011;14533;50.848;4.380;2022-10-28T07:32:11;20.35;;;5.45;;
26981;SDS011;14533;50.848;4.380;2022-10-28T07:34:39;17.15;;;5.32;;
26981;SDS011;14533;50.848;4.380;2022-10-28T07:37:05;17.98;;;6.05;;
26981;SDS011;14533;50.848;4.380;2022-10-28T07:39:30;19.55;;;5.95;;
26981;SDS011;14533;50.848;4.380;2022-10-28T07:41:59;21.67;;;6.00;;
26981;SDS011;14533;50.848;4.380;2022-10-28T07:44:26;19.48;;;6.05;;
26981;SDS011;14533;50.848;4.380;2022-10-28T07:46:52;14.95;;;5.82;;
26981;SDS011;14533;50.848;4.380;2022-10-28T07:49:18;24.40;;;6.40;;
26981;SDS011;14533;50.848;4.380;2022-10-28T07:51:44;19.77;;;5.53;;
26981;SDS011;14533;50.848;4.380;2022-10-28T07:54:09;18.30;;;5.80;;
26981;SDS011;14533;50.848;4.380;2022-10-28T07:56:35;25.83;;;6.80;;
26981;SDS011;14533;50.848;4.380;2022-10-28T07:59:01;20.40;;;5.90;;
26981;SDS011;14533;50.848;4.380;2022-10-28T08:01:26;18.92;;;6.50;;
26981;SDS011;14533;50.848;4.380;2022-10-28T08:03:52;17.35;;;5.65;;
26981;SDS011;14533;50.848;4.380;2022-10-28T08:06:18;24.65;;;5.90;;
26981;SDS011;14533;50.848;4.380;2022-10-28T08:08:45;32.83;;;6.15;;
26981;SDS011;14533;50.848;4.380;2022-10-28T08:11:16;20.85;;;6.13;;
26981;SDS011;14533;50.848;4.380;2022-10-28T08:13:44;20.58;;;5.95;;
26981;SDS011;14533;50.848;4.380;2022-10-28T08:16:10;20.10;;;5.00;;
26981;SDS011;14533;50.848;4.380;2022-10-28T08:18:36;17.83;;;5.18;;
26981;SDS011;14533;50.848;4.380;2022-10-28T08:21:03;19.98;;;5.68;;
26981;SDS011;14533;50.848;4.380;2022-10-28T08:23:30;22.08;;;5.70;;
26981;SDS011;14533;50.848;4.380;2022-10-28T08:25:56;18.10;;;6.32;;
26981;SDS011;14533;50.848;4.380;2022-10-28T08:28:22;14.95;;;5.32;;
26981;SDS011;14533;50.848;4.380;2022-10-28T08:30:48;29.48;;;6.55;;
26981;SDS011;14533;50.848;4.380;2022-10-28T08:33:14;20.60;;;5.57;;
26981;SDS011;14533;50.848;4.380;2022-10-28T08:35:40;19.25;;;5.43;;
26981;SDS011;14533;50.848;4.380;2022-10-28T08:38:06;16.63;;;5.75;;
26981;SDS011;14533;50.848;4.380;2022-10-28T08:43:59;20.33;;;5.53;;
26981;SDS011;14533;50.848;4.380;2022-10-28T08:46:00;22.13;;;6.55;;
26981;SDS011;14533;50.848;4.380;2022-10-28T08:48:40;12.85;;;4.97;;
26981;SDS011;14533;50.848;4.380;2022-10-28T08:51:21;18.75;;;5.72;;
26981;SDS011;14533;50.848;4.380;2022-10-28T08:54:01;19.25;;;5.88;;
26981;SDS011;14533;50.848;4.380;2022-10-28T08:56:33;16.65;;;5.50;;
26981;SDS011;14533;50.848;4.380;2022-10-28T08:59:04;17.98;;;5.75;;
26981;SDS011;14533;50.848;4.380;2022-10-28T09:01:48;22.65;;;6.50;;
26981;SDS011;14533;50.848;4.380;2022-10-28T09:07:14;29.35;;;6.10;;
26981;SDS011;14533;50.848;4.380;2022-10-28T09:09:43;29.85;;;5.93;;
26981;SDS011;14533;50.848;4.380;2022-10-28T09:15:17;16.48;;;5.47;;
26981;SDS011;14533;50.848;4.380;2022-10-28T09:17:58;20.70;;;6.28;;
26981;SDS011;14533;50.848;4.380;2022-10-28T09:20:56;14.52;;;5.10;;
26981;SDS011;14533;50.848;4.380;2022-10-28T09:23:46;24.60;;;5.82;;
26981;SDS011;14533;50.848;4.380;2022-10-28T09:26:30;24.88;;;5.47;;
26981;SDS011;14533;50.848;4.380;2022-10-28T09:42:39;17.00;;;5.60;;
26981;SDS011;14533;50.848;4.380;2022-10-28T09:47:44;24.33;;;6.88;;
26981;SDS011;14533;50.848;4.380;2022-10-28T09:50:20;26.50;;;5.80;;
26981;SDS011;14533;50.848;4.380;2022-10-28T09:53:02;19.67;;;5.53;;
26981;SDS011;14533;50.848;4.380;2022-10-28T09:55:38;18.63;;;5.03;;
26981;SDS011;14533;50.848;4.380;2022-10-28T09:58:04;18.50;;;5.40;;
26981;SDS011;14533;50.848;4.380;2022-10-28T10:00:30;23.83;;;5.63;;
26981;SDS011;14533;50.848;4.380;2022-10-28T10:02:58;16.88;;;5.30;;
26981;SDS011;14533;50.848;4.380;2022-10-28T10:05:24;25.10;;;5.65;;
26981;SDS011;14533;50.848;4.380;2022-10-28T10:07:51;18.63;;;5.57;;
26981;SDS011;14533;50.848;4.380;2022-10-28T10:10:30;21.55;;;6.13;;
26981;SDS011;14533;50.848;4.380;2022-10-28T10:12:57;18.95;;;5.28;;
26981;SDS011;14533;50.848;4.380;2022-10-28T10:15:28;19.95;;;5.18;;
26981;SDS011;14533;50.848;4.380;2022-10-28T10:17:59;25.73;;;5.32;;
26981;SDS011;14533;50.848;4.380;2022-10-28T10:20:28;28.73;;;5.90;;
26981;SDS011;14533;50.848;4.380;2022-10-28T10:23:33;13.43;;;5.05;;
26981;SDS011;14533;50.848;4.380;2022-10-28T10:26:19;18.17;;;5.10;;
26981;SDS011;14533;50.848;4.380;2022-10-28T10:28:48;14.57;;;5.15;;
26981;SDS011;14533;50.848;4.380;2022-10-28T10:31:20;20.75;;;5.60;;
26981;SDS011;14533;50.848;4.380;2022-10-28T10:33:54;20.60;;;5.47;;
26981;SDS011;14533;50.848;4.380;2022-10-28T10:36:25;27.42;;;5.53;;
26981;SDS011;14533;50.848;4.380;2022-10-28T10:38:55;23.63;;;5.10;;
26981;SDS011;14533;50.848;4.380;2022-10-28T10:41:37;19.23;;;4.72;;
26981;SDS011;14533;50.848;4.380;2022-10-28T10:49:45;20.58;;;5.38;;
26981;SDS011;14533;50.848;4.380;2022-10-28T10:52:18;17.58;;;5.07;;
26981;SDS011;14533;50.848;4.380;2022-10-28T10:55:01;26.27;;;5.95;;
26981;SDS011;14533;50.848;4.380;2022-10-28T10:57:32;25.33;;;5.35;;
26981;SDS011;14533;50.848;4.380;2022-10-28T11:00:01;18.35;;;5.50;;
26981;SDS011;14533;50.848;4.380;2022-10-28T11:02:32;24.30;;;5.47;;
26981;SDS011;14533;50.848;4.380;2022-10-28T11:05:08;17.15;;;5.72;;
26981;SDS011;14533;50.848;4.380;2022-10-28T11:07:35;15.80;;;5.50;;
26981;SDS011;14533;50.848;4.380;2022-10-28T11:10:04;24.90;;;6.53;;
26981;SDS011;14533;50.848;4.380;2022-10-28T11:12:56;16.52;;;4.68;;
26981;SDS011;14533;50.848;4.380;2022-10-28T11:15:27;23.13;;;6.45;;
26981;SDS011;14533;50.848;4.380;2022-10-28T11:18:02;18.67;;;5.35;;
26981;SDS011;14533;50.848;4.380;2022-10-28T11:20:49;15.23;;;6.00;;
26981;SDS011;14533;50.848;4.380;2022-10-28T11:26:22;19.65;;;6.28;;
26981;SDS011;14533;50.848;4.380;2022-10-28T11:29:02;15.98;;;4.90;;
26981;SDS011;14533;50.848;4.380;2022-10-28T11:45:46;25.20;;;4.97;;
26981;SDS011;14533;50.848;4.380;2022-10-28T11:48:31;20.90;;;5.53;;
26981;SDS011;14533;50.848;4.380;2022-10-28T11:51:21;22.77;;;6.50;;
26981;SDS011;14533;50.848;4.380;2022-10-28T11:54:00;21.73;;;5.38;;
26981;SDS011;14533;50.848;4.380;2022-10-28T11:56:52;19.92;;;4.70;;
26981;SDS011;14533;50.848;4.380;2022-10-28T11:59:37;26.15;;;5.18;;
26981;SDS011;14533;50.848;4.380;2022-10-28T12:07:41;17.55;;;5.28;;
26981;SDS011;14533;50.848;4.380;2022-10-28T12:16:16;19.63;;;4.82;;
26981;SDS011;14533;50.848;4.380;2022-10-28T12:19:10;24.30;;;5.90;;
26981;SDS011;14533;50.848;4.380;2022-10-28T12:24:28;16.23;;;4.95;;
26981;SDS011;14533;50.848;4.380;2022-10-28T12:26:59;20.30;;;4.90;;
26981;SDS011;14533;50.848;4.380;2022-10-28T12:29:32;21.90;;;4.63;;
26981;SDS011;14533;50.848;4.380;2022-10-28T12:32:12;14.60;;;5.47;;
26981;SDS011;14533;50.848;4.380;2022-10-28T12:34:45;14.20;;;4.50;;
26981;SDS011;14533;50.848;4.380;2022-10-28T12:37:26;21.73;;;5.40;;
26981;SDS011;14533;50.848;4.380;2022-10-28T12:40:00;16.52;;;4.70;;
26981;SDS011;14533;50.848;4.380;2022-10-28T12:42:55;23.83;;;6.00;;
26981;SDS011;14533;50.848;4.380;2022-10-28T12:45:49;22.20;;;5.22;;
26981;SDS011;14533;50.848;4.380;2022-10-28T12:48:43;21.30;;;5.57;;
26981;SDS011;14533;50.848;4.380;2022-10-28T12:54:30;11.68;;;4.50;;
26981;SDS011;14533;50.848;4.380;2022-10-28T12:57:02;17.98;;;4.65;;
26981;SDS011;14533;50.848;4.380;2022-10-28T12:59:44;20.63;;;4.95;;
26981;SDS011;14533;50.848;4.380;2022-10-28T13:02:29;19.90;;;6.07;;
26981;SDS011;14533;50.848;4.380;2022-10-28T13:05:25;13.63;;;4.60;;
26981;SDS011;14533;50.848;4.380;2022-10-28T13:08:09;23.52;;;5.05;;
26981;SDS011;14533;50.848;4.380;2022-10-28T13:13:45;17.83;;;4.28;;
26981;SDS011;14533;50.848;4.380;2022-10-28T13:16:47;22.88;;;4.63;;
26981;SDS011;14533;50.848;4.380;2022-10-28T13:20:11;13.57;;;4.68;;
26981;SDS011;14533;50.848;4.380;2022-10-28T13:22:48;13.63;;;4.55;;
26981;SDS011;14533;50.848;4.380;2022-10-28T13:28:12;15.40;;;4.50;;
26981;SDS011;14533;50.848;4.380;2022-10-28T13:30:54;14.70;;;4.80;;
26981;SDS011;14533;50.848;4.380;2022-10-28T13:35:50;15.65;;;4.70;;
26981;SDS011;14533;50.848;4.380;2022-10-28T13:38:25;11.70;;;4.45;;
26981;SDS011;14533;50.848;4.380;2022-10-28T13:51:49;16.88;;;4.35;;
26981;SDS011;14533;50.848;4.380;2022-10-28T13:54:24;16.23;;;4.47;;
26981;SDS011;14533;50.848;4.380;2022-10-28T13:56:52;24.05;;;4.68;;
26981;SDS011;14533;50.848;4.380;2022-10-28T13:59:26;16.15;;;4.60;;
26981;SDS011;14533;50.848;4.380;2022-10-28T14:01:59;16.33;;;4.70;;
26981;SDS011;14533;50.848;4.380;2022-10-28T14:04:40;16.77;;;5.10;;
26981;SDS011;14533;50.848;4.380;2022-10-28T14:07:25;19.63;;;4.63;;
26981;SDS011;14533;50.848;4.380;2022-10-28T14:09:58;16.00;;;4.82;;
26981;SDS011;14533;50.848;4.380;2022-10-28T14:12:41;19.52;;;5.07;;
26981;SDS011;14533;50.848;4.380;2022-10-28T14:15:18;14.43;;;4.55;;
26981;SDS011;14533;50.848;4.380;2022-10-28T14:44:01;19.88;;;5.20;;
26981;SDS011;14533;50.848;4.380;2022-10-28T14:49:30;15.20;;;4.93;;
26981;SDS011;14533;50.848;4.380;2022-10-28T14:52:06;18.52;;;4.75;;
26981;SDS011;14533;50.848;4.380;2022-10-28T14:54:45;13.33;;;4.60;;
26981;SDS011;14533;50.848;4.380;2022-10-28T14:57:12;19.50;;;4.85;;
26981;SDS011;14533;50.848;4.380;2022-10-28T14:59:43;22.42;;;5.28;;
26981;SDS011;14533;50.848;4.380;2022-10-28T15:04:45;15.48;;;4.60;;
26981;SDS011;14533;50.848;4.380;2022-10-28T15:07:20;12.98;;;5.30;;
26981;SDS011;14533;50.848;4.380;2022-10-28T15:09:47;23.40;;;6.15;;
26981;SDS011;14533;50.848;4.380;2022-10-28T15:12:17;21.48;;;5.32;;
26981;SDS011;14533;50.848;4.380;2022-10-28T15:14:51;16.42;;;5.28;;
26981;SDS011;14533;50.848;4.380;2022-10-28T15:17:19;25.23;;;5.93;;
26981;SDS011;14533;50.848;4.380;2022-10-28T15:19:50;23.75;;;6.07;;
26981;SDS011;14533;50.848;4.380;2022-10-28T15:22:24;14.13;;;4.75;;
26981;SDS011;14533;50.848;4.380;2022-10-28T15:27:18;24.05;;;5.20;;
26981;SDS011;14533;50.848;4.380;2022-10-28T15:29:44;14.32;;;4.80;;
26981;SDS011;14533;50.848;4.380;2022-10-28T15:34:46;17.55;;;5.32;;
26981;SDS011;14533;50.848;4.380;2022-10-28T15:37:18;17.67;;;5.38;;
26981;SDS011;14533;50.848;4.380;2022-10-28T15:39:50;18.95;;;5.35;;
26981;SDS011;14533;50.848;4.380;2022-10-28T15:45:18;17.88;;;5.72;;
26981;SDS011;14533;50.848;4.380;2022-10-28T15:47:48;23.20;;;5.30;;
26981;SDS011;14533;50.848;4.380;2022-10-28T15:52:42;22.55;;;5.97;;
26981;SDS011;14533;50.848;4.380;2022-10-28T15:57:49;20.73;;;5.20;;
26981;SDS011;14533;50.848;4.380;2022-10-28T16:00:17;28.08;;;5.88;;
26981;SDS011;14533;50.848;4.380;2022-10-28T16:08:00;23.30;;;5.45;;
26981;SDS011;14533;50.848;4.380;2022-10-28T16:10:30;21.52;;;5.80;;
26981;SDS011;14533;50.848;4.380;2022-10-28T16:12:59;16.25;;;6.15;;
26981;SDS011;14533;50.848;4.380;2022-10-28T16:15:26;16.42;;;6.60;;
26981;SDS011;14533;50.848;4.380;2022-10-28T16:17:52;26.48;;;5.68;;
26981;SDS011;14533;50.848;4.380;2022-10-28T16:20:19;14.00;;;5.57;;
26981;SDS011;14533;50.848;4.380;2022-10-28T16:22:54;19.60;;;6.28;;
26981;SDS011;14533;50.848;4.380;2022-10-28T16:25:20;19.65;;;5.95;;
26981;SDS011;14533;50.848;4.380;2022-10-28T16:27:46;22.70;;;5.85;;
26981;SDS011;14533;50.848;4.380;2022-10-28T16:30:13;19.52;;;6.35;;
26981;SDS011;14533;50.848;4.380;2022-10-28T16:32:40;18.50;;;6.00;;
26981;SDS011;14533;50.848;4.380;2022-10-28T16:37:41;25.27;;;6.65;;
26981;SDS011;14533;50.848;4.380;2022-10-28T16:40:07;19.52;;;5.78;;
26981;SDS011;14533;50.848;4.380;2022-10-28T16:42:34;22.13;;;6.78;;
26981;SDS011;14533;50.848;4.380;2022-10-28T16:45:01;25.83;;;7.13;;
26981;SDS011;14533;50.848;4.380;2022-10-28T16:47:29;21.20;;;6.82;;
26981;SDS011;14533;50.848;4.380;2022-10-28T16:49:54;22.17;;;6.88;;
26981;SDS011;14533;50.848;4.380;2022-10-28T16:52:21;22.17;;;6.72;;
26981;SDS011;14533;50.848;4.380;2022-10-28T16:54:49;19.85;;;6.88;;
26981;SDS011;14533;50.848;4.380;2022-10-28T16:57:15;19.00;;;6.10;;
26981;SDS011;14533;50.848;4.380;2022-10-28T16:59:42;20.60;;;6.43;;
26981;SDS011;14533;50.848;4.380;2022-10-28T17:02:14;29.63;;;6.70;;
26981;SDS011;14533;50.848;4.380;2022-10-28T17:04:44;19.58;;;6.45;;
26981;SDS011;14533;50.848;4.380;2022-10-28T17:07:10;22.48;;;6.93;;
26981;SDS011;14533;50.848;4.380;2022-10-28T17:09:40;20.02;;;7.00;;
26981;SDS011;14533;50.848;4.380;2022-10-28T17:12:07;20.70;;;6.75;;
26981;SDS011;14533;50.848;4.380;2022-10-28T17:14:53;23.80;;;8.13;;
26981;SDS011;14533;50.848;4.380;2022-10-28T17:17:19;22.90;;;6.82;;
26981;SDS011;14533;50.848;4.380;2022-10-28T17:19:44;19.70;;;7.20;;
26981;SDS011;14533;50.848;4.380;2022-10-28T17:22:10;19.73;;;6.55;;
26981;SDS011;14533;50.848;4.380;2022-10-28T17:24:37;16.40;;;5.97;;
26981;SDS011;14533;50.848;4.380;2022-10-28T17:27:03;18.63;;;6.75;;
26981;SDS011;14533;50.848;4.380;2022-10-28T17:29:29;28.42;;;7.82;;
26981;SDS011;14533;50.848;4.380;2022-10-28T17:31:56;30.02;;;8.98;;
26981;SDS011;14533;50.848;4.380;2022-10-28T17:34:22;22.55;;;6.93;;
26981;SDS011;14533;50.848;4.380;2022-10-28T17:36:47;16.25;;;6.38;;
26981;SDS011;14533;50.848;4.380;2022-10-28T17:39:13;22.17;;;8.25;;
26981;SDS011;14533;50.848;4.380;2022-10-28T17:41:38;21.95;;;7.03;;
26981;SDS011;14533;50.848;4.380;2022-10-28T17:44:04;21.08;;;9.70;;
26981;SDS011;14533;50.848;4.380;2022-10-28T17:46:30;20.27;;;7.55;;
26981;SDS011;14533;50.848;4.380;2022-10-28T17:48:55;25.73;;;7.72;;
26981;SDS011;14533;50.848;4.380;2022-10-28T17:51:21;24.92;;;8.32;;
26981;SDS011;14533;50.848;4.380;2022-10-28T17:53:55;23.27;;;7.47;;
26981;SDS011;14533;50.848;4.380;2022-10-28T17:56:21;24.52;;;8.85;;